createdAt,value
2023-03-01T00:01:13.410Z,6.30
2023-03-01T00:03:40.584Z,6.30
2023-03-01T00:06:08.026Z,6.30
2023-03-01T00:08:35.354Z,6.30
2023-03-01T00:11:12.748Z,6.30
2023-03-01T00:13:40.205Z,6.20
2023-03-01T00:16:10.128Z,6.30
2023-03-01T00:18:37.362Z,6.30
2023-03-01T00:21:04.568Z,6.20
2023-03-01T00:23:32.104Z,6.20
2023-03-01T00:25:59.101Z,6.20
2023-03-01T00:28:26.056Z,6.20
2023-03-01T00:30:53.441Z,6.20
2023-03-01T00:33:20.850Z,6.20
2023-03-01T00:35:48.502Z,6.20
2023-03-01T00:38:15.540Z,6.20
2023-03-01T00:40:42.515Z,6.20
2023-03-01T00:43:09.556Z,6.20
2023-03-01T00:45:37.422Z,6.20
2023-03-01T00:48:04.637Z,6.20
2023-03-01T00:50:31.607Z,6.20
2023-03-01T00:52:58.630Z,6.20
2023-03-01T00:55:26.588Z,6.20
2023-03-01T00:57:53.665Z,6.20
2023-03-01T01:00:21.134Z,6.20
2023-03-01T01:02:49.480Z,6.10
2023-03-01T01:05:22.003Z,6.20
2023-03-01T01:07:49.742Z,6.10
2023-03-01T01:10:18.138Z,6.10
2023-03-01T01:12:48.359Z,6.10
2023-03-01T01:15:17.614Z,6.10
2023-03-01T01:17:44.777Z,6.10
2023-03-01T01:20:12.539Z,6.10
2023-03-01T01:22:39.599Z,6.10
2023-03-01T01:25:07.160Z,6.20
2023-03-01T01:27:34.675Z,6.10
2023-03-01T01:30:01.816Z,6.10
2023-03-01T01:32:29.929Z,6.10
2023-03-01T01:34:56.943Z,6.10
2023-03-01T01:37:24.090Z,6.10
2023-03-01T01:39:51.041Z,6.10
2023-03-01T01:42:19.429Z,6.20
2023-03-01T01:44:49.682Z,6.10
2023-03-01T01:47:21.291Z,6.10
2023-03-01T01:49:52.126Z,6.10
2023-03-01T01:52:25.501Z,6.10
2023-03-01T01:54:58.741Z,6.10
2023-03-01T01:57:32.143Z,6.10
2023-03-01T02:00:01.661Z,6.10
2023-03-01T02:02:29.252Z,6.10
2023-03-01T02:05:25.792Z,6.00
2023-03-01T02:07:53.663Z,6.00
2023-03-01T02:10:25.576Z,6.00
2023-03-01T02:12:53.744Z,6.00
2023-03-01T02:15:21.806Z,6.00
2023-03-01T02:17:49.399Z,6.00
2023-03-01T02:20:28.411Z,6.00
2023-03-01T02:22:56.182Z,6.00
2023-03-01T02:25:32.157Z,6.00
2023-03-01T02:28:12.790Z,6.00
2023-03-01T02:31:00.057Z,6.00
2023-03-01T02:33:27.896Z,6.00
2023-03-01T02:35:56.946Z,6.00
2023-03-01T02:38:25.164Z,6.00
2023-03-01T02:40:53.179Z,6.00
2023-03-01T02:43:22.243Z,6.00
2023-03-01T02:45:51.270Z,6.00
2023-03-01T02:48:19.319Z,6.00
2023-03-01T02:51:12.401Z,6.00
2023-03-01T02:54:02.789Z,6.00
2023-03-01T02:56:31.149Z,6.00
2023-03-01T02:59:01.779Z,6.00
2023-03-01T03:01:39.256Z,6.00
2023-03-01T03:04:10.861Z,6.00
2023-03-01T03:06:38.559Z,6.00
2023-03-01T03:09:05.810Z,6.00
2023-03-01T03:11:33.563Z,6.00
2023-03-01T03:14:00.999Z,6.00
2023-03-01T03:16:28.183Z,6.00
2023-03-01T03:18:55.719Z,6.00
2023-03-01T03:21:22.622Z,6.00
2023-03-01T03:23:49.487Z,6.00
2023-03-01T03:26:16.387Z,6.00
2023-03-01T03:28:43.475Z,6.00
2023-03-01T03:31:10.619Z,6.00
2023-03-01T03:33:37.755Z,6.00
2023-03-01T03:36:05.286Z,6.00
2023-03-01T03:38:32.397Z,6.00
2023-03-01T03:41:06.039Z,6.00
2023-03-01T03:43:33.794Z,6.00
2023-03-01T03:46:00.950Z,6.00
2023-03-01T03:48:27.990Z,6.00
2023-03-01T03:50:55.804Z,6.00
2023-03-01T03:53:24.374Z,6.00
2023-03-01T03:55:52.616Z,6.00
2023-03-01T03:58:21.001Z,6.00
2023-03-01T04:00:48.936Z,6.00
2023-03-01T04:03:16.952Z,5.90
2023-03-01T04:05:43.886Z,5.90
2023-03-01T04:08:10.805Z,5.90
2023-03-01T04:10:41.910Z,5.90
2023-03-01T04:13:13.189Z,5.90
2023-03-01T04:15:40.235Z,5.90
2023-03-01T04:18:07.813Z,5.90
2023-03-01T04:20:35.911Z,5.90
2023-03-01T04:23:11.636Z,5.90
2023-03-01T04:25:40.087Z,5.90
2023-03-01T04:28:07.079Z,5.90
2023-03-01T04:30:36.939Z,5.90
2023-03-01T04:33:05.178Z,5.90
2023-03-01T04:35:32.516Z,5.80
2023-03-01T04:37:59.457Z,5.90
2023-03-01T04:40:26.421Z,5.80
2023-03-01T04:42:53.378Z,5.80
2023-03-01T04:45:20.615Z,5.80
2023-03-01T04:47:47.854Z,5.80
2023-03-01T04:50:16.085Z,5.80
2023-03-01T04:52:43.406Z,5.80
2023-03-01T04:55:10.843Z,5.80
2023-03-01T04:57:37.726Z,5.80
2023-03-01T05:00:21.180Z,5.80
2023-03-01T05:02:54.505Z,5.80
2023-03-01T05:05:22.796Z,5.80
2023-03-01T05:07:49.739Z,5.80
2023-03-01T05:10:16.733Z,5.80
2023-03-01T05:12:43.664Z,5.80
2023-03-01T05:15:10.978Z,5.80
2023-03-01T05:17:40.832Z,5.80
2023-03-01T05:20:09.912Z,5.80
2023-03-01T05:22:37.177Z,5.80
2023-03-01T05:25:04.282Z,5.80
2023-03-01T05:27:31.521Z,5.80
2023-03-01T05:29:58.337Z,5.80
2023-03-01T05:32:25.384Z,5.80
2023-03-01T05:34:53.259Z,5.80
2023-03-01T05:37:20.579Z,5.80
2023-03-01T05:39:48.926Z,5.80
2023-03-01T05:42:18.090Z,5.80
2023-03-01T05:44:45.648Z,5.80
2023-03-01T05:47:12.521Z,5.80
2023-03-01T05:49:39.891Z,5.80
2023-03-01T05:52:06.919Z,5.70
2023-03-01T05:54:34.293Z,5.70
2023-03-01T05:57:01.163Z,5.70
2023-03-01T05:59:28.065Z,5.70
2023-03-01T06:01:55.169Z,5.70
2023-03-01T06:04:22.238Z,5.70
2023-03-01T06:06:49.208Z,5.70
2023-03-01T06:09:16.822Z,5.70
2023-03-01T06:11:43.810Z,5.60
2023-03-01T06:14:11.541Z,5.70
2023-03-01T06:16:38.589Z,5.60
2023-03-01T06:19:05.545Z,5.60
2023-03-01T06:21:32.461Z,5.60
2023-03-01T06:23:59.410Z,5.50
2023-03-01T06:26:26.369Z,5.60
2023-03-01T06:28:53.343Z,5.50
2023-03-01T06:31:20.384Z,5.50
2023-03-01T06:33:47.295Z,5.50
2023-03-01T06:36:14.136Z,5.50
2023-03-01T06:38:41.826Z,5.60
2023-03-01T06:41:08.948Z,5.60
2023-03-01T06:43:36.016Z,5.60
2023-03-01T06:46:04.921Z,5.60
2023-03-01T06:48:31.887Z,5.50
2023-03-01T06:51:02.069Z,5.50
2023-03-01T06:53:29.617Z,5.50
2023-03-01T06:55:57.120Z,5.50
2023-03-01T06:58:24.471Z,5.60
2023-03-01T07:00:51.408Z,5.60
2023-03-01T07:03:18.311Z,5.50
2023-03-01T07:05:45.746Z,5.50
2023-03-01T07:08:12.681Z,5.60
2023-03-01T07:10:39.582Z,5.50
2023-03-01T07:13:08.002Z,5.50
2023-03-01T07:15:34.957Z,5.50
2023-03-01T07:18:01.936Z,5.50
2023-03-01T07:20:28.921Z,5.60
2023-03-01T07:22:57.469Z,5.50
2023-03-01T07:25:24.414Z,5.60
2023-03-01T07:27:54.441Z,5.60
2023-03-01T07:30:22.048Z,5.60
2023-03-01T07:32:49.084Z,5.60
2023-03-01T07:35:16.143Z,5.60
2023-03-01T07:37:43.264Z,5.60
2023-03-01T07:40:10.923Z,5.60
2023-03-01T07:42:38.218Z,5.60
2023-03-01T07:45:05.856Z,5.60
2023-03-01T07:47:32.927Z,5.60
2023-03-01T07:49:59.919Z,5.70
2023-03-01T07:52:26.842Z,5.70
2023-03-01T07:54:53.785Z,5.70
2023-03-01T07:57:20.836Z,5.70
2023-03-01T07:59:47.819Z,5.70
2023-03-01T08:02:16.160Z,5.70
2023-03-01T08:04:43.628Z,5.70
2023-03-01T08:07:10.448Z,5.70
2023-03-01T08:09:40.264Z,5.80
2023-03-01T08:12:07.227Z,5.80
2023-03-01T08:14:34.357Z,5.80
2023-03-01T08:17:01.333Z,5.80
2023-03-01T08:19:29.180Z,5.80
2023-03-01T08:21:59.240Z,5.90
2023-03-01T08:24:26.914Z,5.90
2023-03-01T08:26:54.025Z,5.90
2023-03-01T08:29:21.199Z,5.90
2023-03-01T08:31:48.696Z,6.00
2023-03-01T08:34:16.463Z,6.00
2023-03-01T08:36:44.338Z,6.00
2023-03-01T08:39:12.457Z,6.00
2023-03-01T08:41:39.428Z,6.10
2023-03-01T08:44:06.612Z,6.10
2023-03-01T08:46:35.205Z,6.10
2023-03-01T08:49:04.378Z,6.20
2023-03-01T08:51:33.083Z,6.20
2023-03-01T08:53:59.985Z,6.20
2023-03-01T08:56:26.920Z,6.30
2023-03-01T08:58:53.826Z,6.30
2023-03-01T09:01:20.894Z,6.30
2023-03-01T09:03:48.025Z,6.30
2023-03-01T09:06:15.471Z,6.30
2023-03-01T09:08:44.042Z,6.30
2023-03-01T09:11:12.562Z,6.30
2023-03-01T09:13:40.273Z,6.30
2023-03-01T09:16:08.711Z,6.30
2023-03-01T09:18:36.753Z,6.30
2023-03-01T09:21:16.901Z,6.30
2023-03-01T09:23:45.461Z,6.30
2023-03-01T09:26:20.430Z,6.30
2023-03-01T09:28:47.664Z,6.30
2023-03-01T09:31:15.290Z,6.30
2023-03-01T09:33:42.758Z,6.30
2023-03-01T09:36:12.668Z,6.30
2023-03-01T09:38:39.579Z,6.30
2023-03-01T09:41:18.894Z,6.30
2023-03-01T09:43:48.292Z,6.40
2023-03-01T09:46:18.664Z,6.40
2023-03-01T09:48:54.611Z,6.40
2023-03-01T09:51:32.865Z,6.50
2023-03-01T09:54:02.170Z,6.60
2023-03-01T09:56:40.793Z,6.70
2023-03-01T09:59:10.771Z,6.80
2023-03-01T10:01:56.602Z,6.80
2023-03-01T10:04:42.406Z,6.90
2023-03-01T10:07:12.405Z,7.00
2023-03-01T10:09:41.138Z,7.00
2023-03-01T10:12:28.537Z,7.10
2023-03-01T10:14:55.359Z,7.10
2023-03-01T10:17:42.571Z,7.20
2023-03-01T10:20:33.683Z,7.20
2023-03-01T10:23:01.177Z,7.20
2023-03-01T10:25:31.097Z,7.20
2023-03-01T10:28:03.009Z,7.20
2023-03-01T10:30:39.576Z,7.30
2023-03-01T10:33:15.225Z,7.30
2023-03-01T10:35:42.301Z,7.20
2023-03-01T10:38:10.448Z,7.20
2023-03-01T10:40:50.295Z,7.20
2023-03-01T10:43:17.212Z,7.20
2023-03-01T10:45:44.517Z,7.30
2023-03-01T10:48:20.420Z,7.30
2023-03-01T10:50:49.126Z,7.30
2023-03-01T10:53:31.813Z,7.40
2023-03-01T10:55:58.681Z,7.40
2023-03-01T10:58:25.632Z,7.40
2023-03-01T11:00:54.113Z,7.50
2023-03-01T11:03:28.666Z,7.50
2023-03-01T11:06:00.458Z,7.50
2023-03-01T11:08:34.475Z,7.50
2023-03-01T11:11:28.403Z,7.40
2023-03-01T11:14:00.601Z,7.40
2023-03-01T11:16:29.886Z,7.40
2023-03-01T11:19:01.497Z,7.40
2023-03-01T11:21:30.907Z,7.40
2023-03-01T11:23:59.328Z,7.40
2023-03-01T11:26:26.409Z,7.40
2023-03-01T11:28:56.585Z,7.40
2023-03-01T11:31:25.238Z,7.50
2023-03-01T11:33:57.722Z,7.40
2023-03-01T11:36:33.851Z,7.40
2023-03-01T11:39:16.809Z,7.50
2023-03-01T11:41:44.225Z,7.60
2023-03-01T11:44:14.158Z,7.80
2023-03-01T11:46:56.454Z,7.90
2023-03-01T11:49:50.993Z,7.90
2023-03-01T11:52:37.017Z,8.00
2023-03-01T11:55:03.860Z,8.00
2023-03-01T11:57:44.504Z,8.00
2023-03-01T12:00:18.135Z,8.00
2023-03-01T12:02:52.566Z,8.00
2023-03-01T12:05:34.678Z,8.00
2023-03-01T12:08:09.223Z,8.00
2023-03-01T12:10:51.366Z,8.00
2023-03-01T12:13:33.718Z,8.00
2023-03-01T12:16:00.578Z,8.10
2023-03-01T12:18:42.538Z,8.10
2023-03-01T12:21:15.711Z,8.10
2023-03-01T12:23:45.567Z,8.20
2023-03-01T12:26:18.385Z,8.20
2023-03-01T12:29:04.138Z,8.30
2023-03-01T12:31:43.372Z,8.30
2023-03-01T12:34:10.255Z,8.30
2023-03-01T12:36:53.275Z,8.40
2023-03-01T12:39:35.525Z,8.50
2023-03-01T12:42:05.608Z,8.50
2023-03-01T12:44:47.839Z,8.60
2023-03-01T12:47:29.861Z,8.60
2023-03-01T12:50:03.496Z,8.70
2023-03-01T12:52:36.751Z,8.80
2023-03-01T12:55:08.698Z,8.80
2023-03-01T12:57:40.032Z,8.90
2023-03-01T13:00:27.433Z,8.90
2023-03-01T13:03:00.166Z,8.90
2023-03-01T13:05:33.099Z,8.90
2023-03-01T13:08:10.487Z,8.80
2023-03-01T13:10:44.772Z,8.80
2023-03-01T13:13:11.616Z,8.70
2023-03-01T13:15:38.824Z,8.70
2023-03-01T13:18:20.360Z,8.70
2023-03-01T13:20:48.743Z,8.70
2023-03-01T13:23:21.764Z,8.70
2023-03-01T13:26:01.790Z,8.70
2023-03-01T13:28:37.780Z,8.70
2023-03-01T13:31:05.814Z,8.60
2023-03-01T13:33:34.282Z,8.60
2023-03-01T13:36:01.753Z,8.60
2023-03-01T13:38:38.037Z,8.50
2023-03-01T13:41:05.699Z,8.40
2023-03-01T13:43:37.525Z,8.40
2023-03-01T13:46:12.834Z,8.40
2023-03-01T13:48:40.607Z,8.30
2023-03-01T13:51:11.804Z,8.30
2023-03-01T13:53:43.749Z,8.30
2023-03-01T13:56:13.200Z,8.30
2023-03-01T13:58:51.671Z,8.40
2023-03-01T14:01:24.470Z,8.40
2023-03-01T14:03:51.708Z,8.40
2023-03-01T14:06:23.249Z,8.40
2023-03-01T14:08:51.703Z,8.50
2023-03-01T14:11:26.243Z,8.40
2023-03-01T14:13:59.459Z,8.50
2023-03-01T14:16:46.013Z,8.50
2023-03-01T14:19:32.024Z,8.50
2023-03-01T14:22:04.118Z,8.40
2023-03-01T14:24:33.934Z,8.40
2023-03-01T14:27:02.612Z,8.40
2023-03-01T14:29:42.584Z,8.40
2023-03-01T14:32:20.535Z,8.30
2023-03-01T14:34:48.447Z,8.30
2023-03-01T14:37:30.551Z,8.30
2023-03-01T14:39:58.429Z,8.30
2023-03-01T14:42:28.222Z,8.30
2023-03-01T14:44:56.384Z,8.30
2023-03-01T14:47:33.638Z,8.30
2023-03-01T14:50:02.977Z,8.30
2023-03-01T14:52:35.859Z,8.30
2023-03-01T14:55:04.738Z,8.30
2023-03-01T14:57:31.633Z,8.30
2023-03-01T15:00:01.391Z,8.30
2023-03-01T15:02:31.434Z,8.20
2023-03-01T15:05:03.083Z,8.20
2023-03-01T15:07:32.455Z,8.20
2023-03-01T15:09:59.993Z,8.20
2023-03-01T15:12:35.835Z,8.20
2023-03-01T15:15:19.967Z,8.20
2023-03-01T15:17:51.714Z,8.20
2023-03-01T15:20:22.879Z,8.20
2023-03-01T15:22:49.880Z,8.20
2023-03-01T15:25:19.077Z,8.20
2023-03-01T15:27:50.008Z,8.20
2023-03-01T15:30:22.726Z,8.10
2023-03-01T15:32:49.985Z,8.10
2023-03-01T15:35:35.793Z,8.10
2023-03-01T15:38:02.776Z,8.10
2023-03-01T15:40:33.864Z,8.00
2023-03-01T15:43:07.669Z,8.10
2023-03-01T15:45:39.690Z,8.00
2023-03-01T15:48:18.472Z,8.10
2023-03-01T15:50:47.360Z,8.00
2023-03-01T15:53:15.537Z,8.00
2023-03-01T15:55:42.681Z,8.00
2023-03-01T15:58:20.000Z,7.90
2023-03-01T16:01:00.331Z,7.90
2023-03-01T16:03:28.026Z,7.90
2023-03-01T16:05:55.046Z,7.80
2023-03-01T16:08:22.006Z,7.80
2023-03-01T16:10:52.408Z,7.80
2023-03-01T16:13:20.337Z,7.80
2023-03-01T16:15:47.585Z,7.70
2023-03-01T16:18:14.568Z,7.70
2023-03-01T16:20:41.627Z,7.70
2023-03-01T16:23:09.358Z,7.70
2023-03-01T16:25:36.531Z,7.70
2023-03-01T16:28:09.710Z,7.60
2023-03-01T16:30:37.537Z,7.60
2023-03-01T16:33:19.148Z,7.60
2023-03-01T16:35:53.876Z,7.60
2023-03-01T16:38:20.833Z,7.50
2023-03-01T16:40:48.464Z,7.50
2023-03-01T16:43:15.375Z,7.50
2023-03-01T16:45:45.586Z,7.50
2023-03-01T16:48:12.654Z,7.50
2023-03-01T16:50:40.015Z,7.40
2023-03-01T16:53:07.192Z,7.40
2023-03-01T16:55:34.554Z,7.40
2023-03-01T16:58:02.052Z,7.40
2023-03-01T17:00:29.321Z,7.30
2023-03-01T17:02:56.333Z,7.30
2023-03-01T17:05:25.006Z,7.30
2023-03-01T17:07:52.124Z,7.30
2023-03-01T17:10:19.096Z,7.30
2023-03-01T17:12:48.957Z,7.20
2023-03-01T17:15:15.918Z,7.20
2023-03-01T17:17:42.772Z,7.20
2023-03-01T17:20:10.493Z,7.20
2023-03-01T17:22:37.435Z,7.20
2023-03-01T17:25:04.544Z,7.20
2023-03-01T17:27:35.698Z,7.20
2023-03-01T17:30:03.054Z,7.20
2023-03-01T17:32:30.124Z,7.20
2023-03-01T17:34:57.126Z,7.20
2023-03-01T17:37:24.068Z,7.20
2023-03-01T17:39:50.983Z,7.10
2023-03-01T17:42:17.835Z,7.10
2023-03-01T17:44:44.842Z,7.10
2023-03-01T17:47:11.933Z,7.10
2023-03-01T17:49:39.062Z,7.00
2023-03-01T17:52:06.006Z,7.00
2023-03-01T17:54:33.733Z,7.00
2023-03-01T17:57:01.011Z,7.00
2023-03-01T17:59:31.334Z,7.00
2023-03-01T18:01:58.542Z,7.00
2023-03-01T18:04:25.542Z,6.90
2023-03-01T18:06:52.454Z,6.90
2023-03-01T18:09:19.621Z,6.90
2023-03-01T18:11:47.881Z,6.90
2023-03-01T18:14:14.845Z,6.80
2023-03-01T18:16:41.723Z,6.80
2023-03-01T18:19:08.637Z,6.80
2023-03-01T18:21:37.970Z,6.80
2023-03-01T18:24:05.031Z,6.70
2023-03-01T18:26:32.130Z,6.70
2023-03-01T18:29:01.366Z,6.70
2023-03-01T18:31:32.542Z,6.70
2023-03-01T18:34:00.844Z,6.70
2023-03-01T18:36:29.111Z,6.70
2023-03-01T18:38:56.926Z,6.60
2023-03-01T18:41:27.735Z,6.70
2023-03-01T18:43:56.020Z,6.60
2023-03-01T18:46:23.362Z,6.60
2023-03-01T18:48:52.491Z,6.60
2023-03-01T18:51:20.837Z,6.60
2023-03-01T18:53:47.751Z,6.60
2023-03-01T18:56:15.002Z,6.60
2023-03-01T18:58:44.838Z,6.60
2023-03-01T19:01:19.268Z,6.70
2023-03-01T19:03:46.250Z,6.60
2023-03-01T19:06:13.224Z,6.70
2023-03-01T19:08:42.671Z,6.70
2023-03-01T19:11:09.941Z,6.70
2023-03-01T19:13:38.507Z,6.70
2023-03-01T19:16:14.411Z,6.70
2023-03-01T19:18:42.439Z,6.70
2023-03-01T19:21:10.394Z,6.70
2023-03-01T19:23:38.600Z,6.70
2023-03-01T19:26:06.858Z,6.70
2023-03-01T19:28:34.533Z,6.70
2023-03-01T19:31:02.742Z,6.60
2023-03-01T19:33:30.668Z,6.60
2023-03-01T19:35:58.286Z,6.60
2023-03-01T19:38:25.721Z,6.60
2023-03-01T19:40:53.296Z,6.60
2023-03-01T19:43:20.404Z,6.60
2023-03-01T19:45:51.680Z,6.60
2023-03-01T19:48:18.931Z,6.60
2023-03-01T19:50:47.131Z,6.60
2023-03-01T19:53:14.855Z,6.50
2023-03-01T19:55:45.107Z,6.50
2023-03-01T19:58:12.116Z,6.50
2023-03-01T20:00:40.329Z,6.50
2023-03-01T20:03:07.242Z,6.50
2023-03-01T20:05:35.448Z,6.50
2023-03-01T20:08:02.818Z,6.50
2023-03-01T20:10:33.959Z,6.50
2023-03-01T20:13:03.965Z,6.40
2023-03-01T20:15:31.064Z,6.40
2023-03-01T20:17:57.936Z,6.40
2023-03-01T20:20:25.129Z,6.40
2023-03-01T20:22:52.335Z,6.40
2023-03-01T20:25:19.287Z,6.40
2023-03-01T20:27:47.587Z,6.40
2023-03-01T20:30:15.305Z,6.30
2023-03-01T20:32:42.507Z,6.30
2023-03-01T20:35:09.926Z,6.30
2023-03-01T20:37:37.117Z,6.30
2023-03-01T20:40:04.689Z,6.30
2023-03-01T20:42:31.674Z,6.30
2023-03-01T20:44:58.698Z,6.30
2023-03-01T20:47:25.596Z,6.30
2023-03-01T20:49:52.521Z,6.30
2023-03-01T20:52:19.558Z,6.30
2023-03-01T20:54:46.776Z,6.30
2023-03-01T20:57:13.666Z,6.30
2023-03-01T20:59:40.664Z,6.30
2023-03-01T21:02:07.596Z,6.30
2023-03-01T21:04:34.554Z,6.20
2023-03-01T21:07:01.485Z,6.20
2023-03-01T21:09:28.399Z,6.30
2023-03-01T21:11:55.314Z,6.20
2023-03-01T21:14:23.703Z,6.20
2023-03-01T21:16:50.833Z,6.20
2023-03-01T21:19:18.150Z,6.20
2023-03-01T21:21:45.133Z,6.20
2023-03-01T21:24:12.063Z,6.20
2023-03-01T21:26:39.476Z,6.20
2023-03-01T21:29:06.402Z,6.20
2023-03-01T21:31:35.175Z,6.20
2023-03-01T21:34:06.851Z,6.20
2023-03-01T21:36:35.333Z,6.20
2023-03-01T21:39:03.147Z,6.20
2023-03-01T21:41:32.389Z,6.20
2023-03-01T21:44:03.222Z,6.20
2023-03-01T21:46:32.241Z,6.20
2023-03-01T21:49:00.152Z,6.20
2023-03-01T21:51:27.689Z,6.20
2023-03-01T21:53:55.027Z,6.20
2023-03-01T21:56:23.067Z,6.20
2023-03-01T21:58:50.372Z,6.20
2023-03-01T22:01:18.977Z,6.20
2023-03-01T22:03:46.115Z,6.20
2023-03-01T22:06:19.213Z,6.20
2023-03-01T22:08:47.602Z,6.20
2023-03-01T22:11:15.047Z,6.10
2023-03-01T22:13:42.241Z,6.10
2023-03-01T22:16:09.232Z,6.10
2023-03-01T22:18:36.281Z,6.20
2023-03-01T22:21:04.222Z,6.10
2023-03-01T22:23:31.565Z,6.10
2023-03-01T22:25:58.698Z,6.10
2023-03-01T22:28:25.662Z,6.20
2023-03-01T22:30:52.595Z,6.20
2023-03-01T22:33:19.856Z,6.20
2023-03-01T22:35:46.821Z,6.20
2023-03-01T22:38:13.904Z,6.20
2023-03-01T22:40:40.921Z,6.20
2023-03-01T22:43:07.946Z,6.20
2023-03-01T22:45:34.971Z,6.20
2023-03-01T22:48:02.054Z,6.20
2023-03-01T22:50:29.090Z,6.20
2023-03-01T22:52:56.328Z,6.20
2023-03-01T22:55:23.243Z,6.20
2023-03-01T22:57:50.884Z,6.20
2023-03-01T23:00:18.039Z,6.20
2023-03-01T23:02:45.127Z,6.20
2023-03-01T23:05:12.405Z,6.20
2023-03-01T23:07:39.916Z,6.20
2023-03-01T23:10:07.285Z,6.20
2023-03-01T23:12:34.399Z,6.20
2023-03-01T23:15:01.396Z,6.20
2023-03-01T23:17:28.359Z,6.20
2023-03-01T23:19:55.274Z,6.20
2023-03-01T23:22:22.515Z,6.20
2023-03-01T23:24:49.537Z,6.20
2023-03-01T23:27:17.721Z,6.20
2023-03-01T23:29:45.045Z,6.10
2023-03-01T23:32:12.113Z,6.10
2023-03-01T23:34:43.760Z,6.10
2023-03-01T23:37:10.724Z,6.10
2023-03-01T23:39:38.141Z,6.10
2023-03-01T23:42:05.252Z,6.10
2023-03-01T23:44:32.500Z,6.00
2023-03-01T23:46:59.497Z,6.00
2023-03-01T23:49:27.942Z,6.00
2023-03-01T23:51:54.876Z,6.00
2023-03-01T23:54:23.284Z,6.00
2023-03-01T23:56:50.417Z,6.00
2023-03-01T23:59:18.484Z,6.00
